Time;durP1;ratioP1;P1;durP2;ratioP2;P2;SDS_P1;SDS_P2;PMS_P1;PMS_P2;Temp;Humidity;BMP_temperature;BMP_pressure;BME280_temperature;BME280_humidity;BME280_pressure;Samples;Min_cycle;Max_cycle;Signal;HPM_P1;HPM_P2
2022/09/15 00:00:18;;;;;;;3.43;2.33;;;;;;;12.92;100.00;99516.63;5019183;28;20245;-71
2022/09/15 00:02:45;;;;;;;2.93;2.47;;;;;;;12.90;100.00;99518.47;5020425;28;20719;-71
2022/09/15 00:05:12;;;;;;;3.07;2.23;;;;;;;12.88;100.00;99520.34;5019292;28;20207;-72
2022/09/15 00:07:38;;;;;;;3.50;2.40;;;;;;;12.84;100.00;99522.28;5017367;28;20214;-72
2022/09/15 00:10:06;;;;;;;4.63;2.40;;;;;;;12.82;100.00;99526.75;5015581;28;20207;-71
2022/09/15 00:12:34;;;;;;;3.50;2.80;;;;;;;12.82;100.00;99516.28;5016099;28;20199;-72
2022/09/15 00:15:01;;;;;;;2.93;2.40;;;;;;;12.78;100.00;99519.13;5015727;28;20708;-71
2022/09/15 00:17:28;;;;;;;4.80;2.70;;;;;;;12.77;100.00;99525.28;5014600;28;20205;-70
2022/09/15 00:19:54;;;;;;;4.43;2.70;;;;;;;12.77;100.00;99525.28;5016646;28;20203;-72
2022/09/15 00:22:22;;;;;;;3.00;2.40;;;;;;;12.75;100.00;99521.91;5016347;28;21725;-71
2022/09/15 00:24:49;;;;;;;8.30;2.47;;;;;;;12.73;100.00;99523.75;5018831;28;20211;-71
2022/09/15 00:27:15;;;;;;;3.80;2.40;;;;;;;12.71;100.00;99530.84;5016546;28;20222;-72
2022/09/15 00:29:43;;;;;;;3.70;2.77;;;;;;;12.67;100.00;99536.22;5001780;28;20209;-72
2022/09/15 00:32:09;;;;;;;6.60;2.83;;;;;;;12.67;100.00;99548.47;5019238;28;20512;-72
2022/09/15 00:34:36;;;;;;;4.80;2.73;;;;;;;12.65;100.00;99547.69;5017297;28;20949;-71
2022/09/15 00:37:03;;;;;;;4.27;2.63;;;;;;;12.63;100.00;99547.78;5019387;28;20627;-72
2022/09/15 00:39:29;;;;;;;6.30;2.90;;;;;;;12.62;100.00;99540.84;5019748;28;20273;-72
2022/09/15 00:41:55;;;;;;;3.37;2.50;;;;;;;12.60;100.00;99539.25;5019991;28;20229;-71
2022/09/15 00:44:56;;;;;;;2.67;2.43;;;;;;;12.58;100.00;99541.94;5019721;28;20227;-71
2022/09/15 00:47:25;;;;;;;3.60;2.27;;;;;;;12.60;100.00;99539.25;5016070;28;20202;-71
2022/09/15 00:49:55;;;;;;;5.23;2.50;;;;;;;12.56;100.00;99545.53;5022373;28;20204;-72
2022/09/15 00:52:27;;;;;;;2.80;2.30;;;;;;;12.53;100.00;99541.31;5013013;28;20212;-70
2022/09/15 00:54:57;;;;;;;3.53;2.67;;;;;;;12.50;100.00;99542.34;5015865;28;20215;-71
2022/09/15 00:57:28;;;;;;;3.40;2.60;;;;;;;12.49;100.00;99545.03;5012113;28;20208;-72
2022/09/15 00:59:59;;;;;;;4.53;2.90;;;;;;;12.44;100.00;99547.03;5017183;28;20196;-71
2022/09/15 01:02:29;;;;;;;4.03;2.60;;;;;;;12.42;100.00;99554.94;5016870;28;20208;-71
2022/09/15 01:04:57;;;;;;;2.63;2.27;;;;;;;12.40;100.00;99548.97;5015824;28;20618;-70
2022/09/15 01:07:30;;;;;;;4.13;2.70;;;;;;;12.38;100.00;99549.94;5018064;28;20623;-71
2022/09/15 01:09:59;;;;;;;2.97;2.33;;;;;;;12.36;100.00;99541.34;5015286;28;20193;-72
2022/09/15 01:12:27;;;;;;;4.40;2.90;;;;;;;12.36;100.00;99538.72;5020154;28;20197;-71
2022/09/15 01:14:53;;;;;;;3.57;2.60;;;;;;;12.32;100.00;99549.31;5018697;28;20208;-72
2022/09/15 01:17:33;;;;;;;4.10;2.47;;;;;;;12.29;100.00;99546.88;5016625;28;20689;-71
2022/09/15 01:20:25;;;;;;;2.57;2.33;;;;;;;12.27;100.00;99553.09;5016648;28;20337;-72
2022/09/15 01:23:08;;;;;;;3.93;2.63;;;;;;;12.23;100.00;99555.03;5017699;28;20526;-71
2022/09/15 01:25:59;;;;;;;3.37;2.67;;;;;;;12.22;100.00;99549.88;5016154;28;20687;-70
2022/09/15 01:28:46;;;;;;;5.23;2.93;;;;;;;12.18;100.00;99551.78;5015580;28;20247;-71
2022/09/15 01:31:22;;;;;;;3.97;2.50;;;;;;;12.18;100.00;99558.78;5012982;28;20592;-72
2022/09/15 01:33:53;;;;;;;3.80;2.73;;;;;;;12.16;100.00;99561.47;5017013;28;20211;-72
2022/09/15 01:36:25;;;;;;;4.10;2.50;;;;;;;12.14;100.00;99560.72;5022282;28;20202;-72
2022/09/15 01:38:59;;;;;;;5.73;2.90;;;;;;;12.13;100.00;99557.22;5020337;28;20207;-71
2022/09/15 01:41:31;;;;;;;3.77;2.50;;;;;;;12.09;100.00;99557.47;5015472;28;20678;-72
2022/09/15 01:44:05;;;;;;;3.70;2.87;;;;;;;12.03;100.00;99558.63;5021985;28;20448;-72
2022/09/15 01:46:37;;;;;;;3.30;2.43;;;;;;;12.05;100.00;99550.72;5017498;28;20891;-72
2022/09/15 01:49:06;;;;;;;4.77;2.57;;;;;;;12.01;100.00;99543.94;5024060;28;20232;-71
2022/09/15 01:51:34;;;;;;;4.63;2.40;;;;;;;11.98;100.00;99549.31;5037486;22;20239;-74
2022/09/15 01:54:03;;;;;;;3.60;2.53;;;;;;;11.95;100.00;99544.25;5030731;28;20279;-73
2022/09/15 01:56:30;;;;;;;3.53;2.53;;;;;;;11.92;100.00;99546.09;5027963;28;20207;-73
2022/09/15 01:58:57;;;;;;;4.13;2.70;;;;;;;11.88;100.00;99554.97;5013227;28;20292;-73
2022/09/15 02:01:30;;;;;;;4.80;2.50;;;;;;;11.86;100.00;99550.75;5020040;28;20279;-74
2022/09/15 02:04:05;;;;;;;3.83;2.63;;;;;;;11.81;100.00;99553.56;5033173;28;20650;-74
2022/09/15 02:06:39;;;;;;;3.00;2.27;;;;;;;11.79;100.00;99558.03;5039231;28;20581;-74
2022/09/15 02:09:12;;;;;;;4.23;2.60;;;;;;;11.74;100.00;99557.38;5035855;28;20200;-74
2022/09/15 02:11:46;;;;;;;2.83;2.37;;;;;;;11.68;100.00;99560.28;5026473;28;20569;-73
2022/09/15 02:14:17;;;;;;;5.70;2.67;;;;;;;11.64;100.00;99553.53;5033684;28;20242;-73
2022/09/15 02:16:47;;;;;;;3.33;2.90;;;;;;;11.61;100.00;99554.53;5038282;28;20299;-73
2022/09/15 02:19:20;;;;;;;3.63;2.70;;;;;;;11.55;100.00;99558.25;5036619;28;20271;-73
2022/09/15 02:21:54;;;;;;;3.27;2.60;;;;;;;11.55;100.00;99549.59;5028981;28;20294;-73
2022/09/15 02:24:26;;;;;;;3.23;2.53;;;;;;;11.53;100.00;99556.66;5015274;28;20679;-73
2022/09/15 02:26:54;;;;;;;3.03;2.47;;;;;;;11.56;100.00;99559.13;5030825;28;20278;-73
2022/09/15 02:29:26;;;;;;;5.27;3.17;;;;;;;11.50;100.00;99562.88;5023500;28;20203;-73
2022/09/15 02:31:56;;;;;;;2.60;2.20;;;;;;;11.48;100.00;99569.06;5029769;28;20545;-73
2022/09/15 02:34:27;;;;;;;4.90;3.03;;;;;;;11.43;100.00;99564.03;5025726;28;20206;-76
2022/09/15 02:36:55;;;;;;;5.57;2.80;;;;;;;11.42;100.00;99551.94;5027738;28;20269;-73
2022/09/15 02:39:27;;;;;;;2.67;2.33;;;;;;;11.39;100.00;99557.28;5027790;28;20206;-73
2022/09/15 02:41:54;;;;;;;4.50;2.70;;;;;;;11.33;100.00;99553.19;5032678;28;20203;-73
2022/09/15 02:44:20;;;;;;;2.60;2.03;;;;;;;11.32;100.00;99563.72;5035915;28;20207;-74
2022/09/15 02:46:47;;;;;;;6.67;2.50;;;;;;;11.32;100.00;99561.09;5030407;28;20280;-74
2022/09/15 02:49:13;;;;;;;3.13;2.57;;;;;;;11.29;100.00;99566.44;5031355;28;20207;-73
2022/09/15 02:51:41;;;;;;;3.47;2.47;;;;;;;11.29;100.00;99563.84;5021803;28;20221;-73
2022/09/15 02:54:08;;;;;;;3.20;2.33;;;;;;;11.25;100.00;99557.09;5028487;28;20557;-73
2022/09/15 02:56:34;;;;;;;4.97;2.47;;;;;;;11.22;100.00;99549.38;5028936;28;20563;-73
2022/09/15 02:59:00;;;;;;;3.37;2.60;;;;;;;11.18;100.00;99559.13;5032989;28;20207;-73
2022/09/15 03:01:31;;;;;;;4.87;2.70;;;;;;;11.15;100.00;99559.25;5026268;28;20207;-73
2022/09/15 03:03:58;;;;;;;4.30;2.80;;;;;;;11.14;100.00;99557.56;5029886;28;20226;-73
2022/09/15 03:06:27;;;;;;;3.90;2.47;;;;;;;11.11;100.00;99555.94;5025580;28;20240;-73
2022/09/15 03:08:57;;;;;;;4.43;2.13;;;;;;;11.12;100.00;99547.19;5025734;28;20202;-73
2022/09/15 03:11:26;;;;;;;3.40;2.20;;;;;;;11.05;100.00;99545.78;5014713;28;20283;-73
2022/09/15 03:13:54;;;;;;;3.10;2.37;;;;;;;11.03;100.00;99542.41;5029900;28;20225;-73
2022/09/15 03:16:20;;;;;;;3.37;2.57;;;;;;;11.04;100.00;99551.91;5033343;28;20580;-73
2022/09/15 03:18:47;;;;;;;3.90;2.43;;;;;;;11.00;100.00;99555.59;5028294;28;20209;-73
2022/09/15 03:21:16;;;;;;;3.23;2.30;;;;;;;10.92;100.00;99549.84;5026808;28;20206;-74
2022/09/15 03:23:42;;;;;;;2.50;2.20;;;;;;;10.94;100.00;99541.06;5029366;28;20300;-74
2022/09/15 03:26:11;;;;;;;3.23;2.47;;;;;;;10.93;100.00;99549.78;5025994;28;20199;-74
2022/09/15 03:28:38;;;;;;;3.90;2.50;;;;;;;10.91;100.00;99561.22;5020275;28;20204;-74
2022/09/15 03:31:06;;;;;;;3.53;2.73;;;;;;;10.84;100.00;99557.19;5026171;28;20198;-74
2022/09/15 03:33:32;;;;;;;2.87;2.23;;;;;;;10.79;100.00;99563.44;5028598;28;20308;-74
2022/09/15 03:36:00;;;;;;;2.73;2.20;;;;;;;10.78;100.00;99566.09;5011927;28;20202;-74
2022/09/15 03:38:26;;;;;;;4.30;2.53;;;;;;;10.76;100.00;99563.59;5024542;28;20198;-74
2022/09/15 03:40:57;;;;;;;5.27;2.57;;;;;;;10.80;100.00;99569.53;5019290;28;20212;-74
2022/09/15 03:43:25;;;;;;;3.73;2.80;;;;;;;10.75;100.00;99572.31;5028967;28;20251;-74
2022/09/15 03:45:52;;;;;;;5.30;2.53;;;;;;;10.70;100.00;99571.66;5031062;28;20209;-74
2022/09/15 03:48:18;;;;;;;8.40;3.07;;;;;;;10.69;100.00;99572.56;5009872;28;20220;-74
2022/09/15 03:50:45;;;;;;;4.53;3.20;;;;;;;10.67;100.00;99570.94;5027122;28;20233;-74
2022/09/15 03:53:12;;;;;;;4.37;2.93;;;;;;;10.67;100.00;99568.34;5028211;28;20255;-74
2022/09/15 03:55:38;;;;;;;4.93;3.40;;;;;;;10.60;100.00;99573.81;5027318;28;20225;-74
2022/09/15 03:58:04;;;;;;;4.40;2.97;;;;;;;10.64;100.00;99576.28;5024980;28;20599;-74
2022/09/15 04:00:32;;;;;;;4.77;2.87;;;;;;;10.60;100.00;99575.56;5010306;28;20219;-74
2022/09/15 04:02:59;;;;;;;5.70;3.50;;;;;;;10.60;100.00;99583.41;5027108;28;20214;-74
2022/09/15 04:05:25;;;;;;;3.47;3.10;;;;;;;10.54;100.00;99581.91;5023704;28;20192;-73
2022/09/15 04:07:52;;;;;;;5.60;2.97;;;;;;;10.53;100.00;99585.41;5022704;28;20230;-73
2022/09/15 04:10:18;;;;;;;5.07;3.17;;;;;;;10.58;100.00;99583.47;5027494;28;20208;-74
2022/09/15 04:12:45;;;;;;;5.60;3.40;;;;;;;10.58;100.00;99587.84;5020504;28;20668;-73
2022/09/15 04:15:11;;;;;;;5.57;3.43;;;;;;;10.58;100.00;99585.22;5021903;28;20222;-74
2022/09/15 04:17:39;;;;;;;5.57;3.37;;;;;;;10.58;100.00;99586.06;5029889;28;20702;-74
2022/09/15 04:20:06;;;;;;;5.33;3.00;;;;;;;10.67;100.00;99590.03;5024454;28;20193;-74
2022/09/15 04:22:33;;;;;;;4.37;3.07;;;;;;;10.68;100.00;99599.56;5028170;28;20206;-73
2022/09/15 04:24:59;;;;;;;4.23;2.90;;;;;;;10.74;100.00;99599.28;5025526;28;20790;-74
2022/09/15 04:27:26;;;;;;;5.93;3.47;;;;;;;10.75;100.00;99602.75;5025685;28;20218;-74
2022/09/15 04:29:53;;;;;;;4.90;3.37;;;;;;;10.78;100.00;99594.78;5019432;28;20210;-74
2022/09/15 04:32:20;;;;;;;4.77;3.67;;;;;;;10.83;100.00;99590.22;5026138;28;20194;-74
2022/09/15 04:34:49;;;;;;;4.90;3.43;;;;;;;10.93;100.00;99591.50;5023971;28;20212;-74
2022/09/15 04:37:15;;;;;;;4.83;3.50;;;;;;;10.90;100.00;99591.66;5024204;28;20224;-74
2022/09/15 04:39:42;;;;;;;6.13;3.63;;;;;;;10.91;100.00;99593.34;5010536;28;20216;-74
2022/09/15 04:42:08;;;;;;;5.00;3.53;;;;;;;10.99;100.00;99599.09;5024745;28;20202;-74
2022/09/15 04:44:34;;;;;;;5.97;3.77;;;;;;;11.04;100.00;99604.09;5025980;28;20209;-74
2022/09/15 04:47:01;;;;;;;6.73;3.87;;;;;;;11.07;100.00;99605.72;5033217;28;20242;-74
2022/09/15 04:49:27;;;;;;;5.97;4.00;;;;;;;11.04;100.00;99601.47;5029267;28;20212;-74
2022/09/15 04:51:55;;;;;;;5.47;3.90;;;;;;;11.03;100.00;99601.53;5020894;28;20217;-74
2022/09/15 04:54:22;;;;;;;7.40;3.97;;;;;;;11.06;100.00;99609.22;5018754;28;20316;-74
2022/09/15 04:56:48;;;;;;;7.30;3.87;;;;;;;11.05;100.00;99608.41;5031129;28;20210;-74
2022/09/15 04:59:18;;;;;;;6.03;4.30;;;;;;;11.04;100.00;99606.69;5006705;28;20219;-74
2022/09/15 05:01:46;;;;;;;7.60;4.33;;;;;;;11.06;100.00;99610.06;5025484;28;20228;-74
2022/09/15 05:04:13;;;;;;;6.37;3.87;;;;;;;11.07;100.00;99611.78;5025716;28;20707;-74
2022/09/15 05:06:40;;;;;;;5.87;4.13;;;;;;;11.10;100.00;99609.03;5025911;28;20221;-74
2022/09/15 05:09:08;;;;;;;8.33;4.53;;;;;;;11.12;100.00;99616.81;5019045;28;20683;-74
2022/09/15 05:11:35;;;;;;;8.17;5.13;;;;;;;11.12;100.00;99609.81;5022993;28;20205;-74
2022/09/15 05:14:01;;;;;;;6.93;4.57;;;;;;;11.19;100.00;99602.56;5019790;28;20220;-73
2022/09/15 05:16:30;;;;;;;8.30;5.03;;;;;;;11.23;100.00;99605.88;5026486;28;20231;-74
2022/09/15 05:18:58;;;;;;;8.40;5.20;;;;;;;11.26;100.00;99605.75;5021632;28;20212;-74
2022/09/15 05:21:25;;;;;;;6.77;4.83;;;;;;;11.29;100.00;99608.19;5020619;28;20729;-74
2022/09/15 05:23:51;;;;;;;7.17;4.80;;;;;;;11.33;100.00;99613.22;5023154;28;20200;-74
2022/09/15 05:26:22;;;;;;;8.23;4.93;;;;;;;11.35;100.00;99613.16;5025555;28;20279;-74
2022/09/15 05:28:49;;;;;;;6.07;4.63;;;;;;;11.40;100.00;99616.41;5024531;28;20548;-74
2022/09/15 05:31:17;;;;;;;9.53;5.07;;;;;;;11.44;100.00;99615.34;5017316;28;20275;-74
2022/09/15 05:33:44;;;;;;;7.10;5.00;;;;;;;11.50;100.00;99609.84;5030582;28;20205;-74
2022/09/15 05:36:13;;;;;;;6.77;4.70;;;;;;;11.54;100.00;99614.00;5006499;28;20247;-74
2022/09/15 05:38:40;;;;;;;8.37;5.60;;;;;;;11.62;100.00;99612.81;5011131;28;20211;-74
2022/09/15 05:41:08;;;;;;;11.40;5.67;;;;;;;11.65;100.00;99605.66;5023117;28;20298;-74
2022/09/15 05:43:37;;;;;;;14.90;5.80;;;;;;;11.70;100.00;99602.84;5021431;28;20204;-74
2022/09/15 05:46:05;;;;;;;10.17;6.43;;;;;;;11.73;100.00;99608.78;5027093;28;20639;-74
2022/09/15 05:48:31;;;;;;;9.93;6.17;;;;;;;11.80;100.00;99611.09;5022499;28;20204;-74
2022/09/15 05:50:58;;;;;;;9.43;5.77;;;;;;;11.83;100.00;99603.13;5006981;28;20196;-74
2022/09/15 05:53:25;;;;;;;10.10;5.57;;;;;;;11.88;100.00;99599.34;5022553;28;20196;-74
2022/09/15 05:55:55;;;;;;;11.37;6.50;;;;;;;11.98;100.00;99604.16;5005224;28;20232;-74
2022/09/15 05:58:22;;;;;;;9.03;6.60;;;;;;;11.93;100.00;99612.25;5024833;28;20318;-74
2022/09/15 06:00:52;;;;;;;9.70;6.10;;;;;;;11.99;100.00;99611.09;5024616;28;20196;-74
2022/09/15 06:03:18;;;;;;;19.10;7.27;;;;;;;12.03;100.00;99613.50;5020134;28;20192;-74
2022/09/15 06:05:45;;;;;;;10.80;6.23;;;;;;;12.09;100.00;99604.50;5018675;28;20200;-74
2022/09/15 06:08:12;;;;;;;13.27;6.47;;;;;;;12.16;100.00;99607.69;5025192;28;20619;-74
2022/09/15 06:10:38;;;;;;;13.20;6.57;;;;;;;12.25;100.00;99602.00;5025580;28;20250;-74
2022/09/15 06:13:05;;;;;;;12.70;7.30;;;;;;;12.34;100.00;99600.69;5026037;28;20215;-74
2022/09/15 06:15:31;;;;;;;14.93;6.87;;;;;;;12.39;100.00;99602.16;5023715;28;20575;-74
2022/09/15 06:17:59;;;;;;;14.53;7.20;;;;;;;12.42;100.00;99607.22;5024949;28;20218;-74
2022/09/15 06:20:26;;;;;;;12.63;6.73;;;;;;;12.48;100.00;99603.47;5022783;28;20205;-74
2022/09/15 06:22:53;;;;;;;14.60;7.07;;;;;;;12.52;100.00;99598.91;5023222;28;20211;-74
2022/09/15 06:25:19;;;;;;;13.40;7.47;;;;;;;12.53;100.00;99598.00;5026817;28;20254;-74
2022/09/15 06:27:48;;;;;;;12.53;6.57;;;;;;;12.60;100.00;99591.53;5030884;28;20223;-74
2022/09/15 06:30:15;;;;;;;13.80;7.43;;;;;;;12.59;100.00;99597.69;5023813;28;20202;-74
2022/09/15 06:32:42;;;;;;;12.30;6.93;;;;;;;12.64;100.00;99606.13;5028177;28;20210;-74
2022/09/15 06:35:10;;;;;;;13.23;7.63;;;;;;;12.68;100.00;99608.53;5025427;28;20239;-74
2022/09/15 06:37:36;;;;;;;13.80;7.20;;;;;;;12.72;100.00;99610.97;5029847;28;20234;-74
2022/09/15 06:40:03;;;;;;;10.63;7.27;;;;;;;12.74;100.00;99604.75;5025590;28;20212;-74
2022/09/15 06:42:30;;;;;;;10.50;6.67;;;;;;;12.82;100.00;99606.97;5023998;28;20241;-74
2022/09/15 06:44:57;;;;;;;12.33;7.07;;;;;;;12.84;100.00;99616.44;5006081;28;20279;-74
2022/09/15 06:47:23;;;;;;;12.83;7.20;;;;;;;12.85;100.00;99607.66;5028239;28;20222;-74
2022/09/15 06:49:49;;;;;;;12.13;6.97;;;;;;;12.92;100.00;99610.78;5028080;28;20222;-74
2022/09/15 06:52:17;;;;;;;15.10;7.20;;;;;;;12.93;100.00;99614.25;5027387;28;20217;-74
2022/09/15 06:54:43;;;;;;;15.97;7.37;;;;;;;12.84;100.00;99613.81;5028324;28;20216;-74
2022/09/15 06:57:10;;;;;;;13.33;7.27;;;;;;;12.87;100.00;99613.66;5027009;28;20222;-74
2022/09/15 06:59:36;;;;;;;10.73;6.83;;;;;;;12.87;100.00;99612.81;5027755;28;20214;-74
2022/09/15 07:02:02;;;;;;;12.10;6.53;;;;;;;12.94;100.00;99601.09;5026176;28;20210;-74
2022/09/15 07:04:29;;;;;;;13.20;7.23;;;;;;;12.89;100.00;99605.72;5025354;28;20192;-74
2022/09/15 07:06:56;;;;;;;13.10;6.60;;;;;;;12.91;100.00;99608.25;5025640;28;20262;-74
2022/09/15 07:09:24;;;;;;;11.17;7.00;;;;;;;12.96;100.00;99604.47;5027232;28;20223;-74
2022/09/15 07:11:50;;;;;;;12.60;7.30;;;;;;;13.05;100.00;99611.00;5025889;28;20217;-74
2022/09/15 07:14:16;;;;;;;13.37;6.77;;;;;;;13.11;100.00;99609.84;5027575;28;20202;-74
2022/09/15 07:16:43;;;;;;;11.83;7.23;;;;;;;13.15;100.00;99606.97;5030439;28;20222;-73
2022/09/15 07:19:09;;;;;;;11.80;7.17;;;;;;;13.19;100.00;99594.56;5028973;28;20194;-74
2022/09/15 07:21:36;;;;;;;13.67;7.73;;;;;;;13.33;100.00;99606.94;5028509;28;20213;-74
2022/09/15 07:24:03;;;;;;;14.80;7.40;;;;;;;13.40;100.00;99617.03;5025898;28;20206;-74
2022/09/15 07:26:31;;;;;;;13.23;7.63;;;;;;;13.46;100.00;99609.78;5010637;28;20429;-74
2022/09/15 07:29:00;;;;;;;14.90;7.70;;;;;;;13.50;100.00;99604.28;5043030;28;20196;-74
2022/09/15 07:31:28;;;;;;;12.50;7.47;;;;;;;13.62;100.00;99606.22;5030849;28;20202;-74
2022/09/15 07:33:56;;;;;;;13.60;7.53;;;;;;;13.70;100.00;99605.81;5020072;28;20218;-74
2022/09/15 07:38:58;;;;;;;13.80;8.30;;;;;;;13.88;100.00;99618.78;5023101;28;20215;-74
2022/09/15 07:41:26;;;;;;;18.60;7.83;;;;;;;13.93;100.00;99620.25;5023700;28;20227;-74
2022/09/15 07:43:55;;;;;;;13.60;8.57;;;;;;;13.96;100.00;99608.75;5006322;28;20204;-74
2022/09/15 07:46:23;;;;;;;14.00;8.20;;;;;;;14.08;100.00;99615.91;5005475;28;20204;-74
2022/09/15 07:48:51;;;;;;;15.37;8.30;;;;;;;14.14;100.00;99612.94;5024661;28;20210;-74
2022/09/15 07:51:19;;;;;;;16.40;7.70;;;;;;;14.18;100.00;99608.38;5006162;28;20234;-74
2022/09/15 07:53:47;;;;;;;12.77;7.77;;;;;;;14.37;100.00;99614.25;5005463;28;20215;-74
2022/09/15 07:56:16;;;;;;;14.33;7.80;;;;;;;14.45;100.00;99613.78;5023102;28;20626;-74
2022/09/15 07:58:42;;;;;;;15.73;7.67;;;;;;;14.55;100.00;99611.50;5026807;28;20204;-74
2022/09/15 08:01:11;;;;;;;13.10;7.93;;;;;;;14.66;100.00;99621.38;5004432;28;20335;-74
2022/09/15 08:03:39;;;;;;;10.07;6.70;;;;;;;14.75;100.00;99621.66;5005625;28;20287;-74
2022/09/15 08:06:06;;;;;;;9.27;6.17;;;;;;;14.93;100.00;99619.75;5003021;28;20701;-74
2022/09/15 08:08:32;;;;;;;12.67;6.13;;;;;;;15.00;100.00;99622.81;5024623;28;20211;-74
2022/09/15 08:10:59;;;;;;;10.87;5.40;;;;;;;14.93;100.00;99626.75;5007124;28;20750;-74
2022/09/15 08:13:25;;;;;;;10.10;5.33;;;;;;;15.01;100.00;99629.78;5023328;28;20711;-74
2022/09/15 08:15:51;;;;;;;6.27;4.53;;;;;;;15.02;100.00;99628.84;5020524;28;20230;-74
2022/09/15 08:18:19;;;;;;;7.50;4.50;;;;;;;15.15;100.00;99626.31;5022877;28;20611;-74
2022/09/15 08:20:45;;;;;;;7.53;4.73;;;;;;;15.19;100.00;99635.69;5020994;28;20262;-74
2022/09/15 08:23:12;;;;;;;7.63;4.37;;;;;;;15.30;100.00;99632.38;5021528;28;20206;-74
2022/09/15 08:25:38;;;;;;;6.97;4.93;;;;;;;15.33;100.00;99625.16;4994456;28;20226;-74
2022/09/15 08:28:05;;;;;;;11.10;4.77;;;;;;;15.45;100.00;99625.38;5021018;28;20618;-74
2022/09/15 08:30:31;;;;;;;8.10;4.57;;;;;;;15.56;100.00;99622.91;5006530;28;20203;-74
2022/09/15 08:32:58;;;;;;;7.73;4.23;;;;;;;15.64;100.00;99627.69;5025109;28;20660;-74
2022/09/15 08:35:25;;;;;;;5.93;4.40;;;;;;;15.64;100.00;99628.53;5002750;28;21022;-74
2022/09/15 08:37:53;;;;;;;5.00;3.80;;;;;;;15.43;100.00;99622.81;5022559;28;20219;-74
2022/09/15 08:40:23;;;;;;;4.43;3.73;;;;;;;15.36;100.00;99632.03;5023980;28;20188;-74
2022/09/15 08:42:55;;;;;;;5.43;3.93;;;;;;;15.38;100.00;99634.56;5003513;28;20224;-74
2022/09/15 08:45:25;;;;;;;5.10;4.07;;;;;;;15.52;100.00;99624.88;5001731;28;20287;-74
2022/09/15 08:47:57;;;;;;;6.10;3.70;;;;;;;15.59;100.00;99633.22;5020947;28;20200;-74
2022/09/15 08:50:29;;;;;;;5.90;4.03;;;;;;;15.71;100.00;99623.72;5001186;28;20219;-74
2022/09/15 08:53:00;;;;;;;4.20;3.33;;;;;;;15.71;100.00;99632.44;5020639;28;20204;-74
2022/09/15 08:55:40;;;;;;;4.13;3.30;;;;;;;15.80;100.00;99632.84;5018299;28;20204;-74
2022/09/15 08:58:13;;;;;;;4.50;3.20;;;;;;;15.81;100.00;99622.25;5006321;28;20228;-74
2022/09/15 09:00:40;;;;;;;5.53;3.30;;;;;;;15.78;100.00;99634.72;5018679;28;20246;-74
2022/09/15 09:03:27;;;;;;;4.73;3.13;;;;;;;15.84;100.00;99627.28;5001985;28;20249;-74
2022/09/15 09:06:01;;;;;;;8.00;3.57;;;;;;;15.93;100.00;99630.28;5005388;28;20702;-74
2022/09/15 09:08:46;;;;;;;3.60;2.60;;;;;;;15.92;100.00;99636.47;5006318;28;20702;-74
2022/09/15 09:11:24;;;;;;;4.57;2.83;;;;;;;15.97;100.00;99624.72;5018138;28;20407;-74
2022/09/15 09:14:00;;;;;;;3.30;2.80;;;;;;;16.06;100.00;99624.13;5018735;28;20247;-74
2022/09/15 09:16:41;;;;;;;3.60;2.70;;;;;;;16.05;100.00;99630.31;4998880;28;20223;-74
2022/09/15 09:19:32;;;;;;;7.40;2.90;;;;;;;16.16;100.00;99631.41;5023549;28;20199;-74
2022/09/15 09:22:07;;;;;;;3.30;2.43;;;;;;;16.22;100.00;99634.50;5019840;28;20224;-74
2022/09/15 09:24:38;;;;;;;2.47;2.17;;;;;;;16.44;100.00;99626.00;5021948;28;20200;-74
2022/09/15 09:27:09;;;;;;;2.60;2.07;;;;;;;16.64;100.00;99632.59;5021330;28;20207;-74
2022/09/15 09:29:41;;;;;;;2.77;1.90;;;;;;;16.76;100.00;99632.69;5004941;28;20215;-74
2022/09/15 09:32:15;;;;;;;4.50;2.20;;;;;;;16.80;100.00;99629.78;5004706;28;20224;-74
2022/09/15 09:34:45;;;;;;;2.53;1.80;;;;;;;16.88;100.00;99631.91;5015578;28;20210;-74
2022/09/15 09:37:15;;;;;;;1.63;1.53;;;;;;;16.95;100.00;99634.97;5003394;28;20230;-74
2022/09/15 09:39:41;;;;;;;2.53;1.73;;;;;;;17.00;100.00;99643.41;5022476;28;20590;-74
2022/09/15 09:42:14;;;;;;;2.77;1.53;;;;;;;17.15;100.00;99633.59;5020781;28;20814;-74
2022/09/15 09:44:41;;;;;;;2.13;1.63;;;;;;;17.10;100.00;99636.56;5004522;28;20215;-74
2022/09/15 09:47:08;;;;;;;1.63;1.50;;;;;;;17.12;100.00;99631.19;5021755;28;20223;-74
2022/09/15 09:49:37;;;;;;;2.73;1.43;;;;;;;16.96;100.00;99634.03;5004781;28;20211;-74
2022/09/15 09:52:04;;;;;;;3.27;1.63;;;;;;;16.96;100.00;99621.69;5002049;28;20298;-74
2022/09/15 09:54:34;;;;;;;1.40;1.30;;;;;;;17.00;100.00;99625.78;5019222;28;20206;-74
2022/09/15 09:57:26;;;;;;;2.40;1.63;;;;;;;16.83;100.00;99618.19;5003930;28;20684;-74
2022/09/15 09:59:53;;;;;;;2.20;1.43;;;;;;;16.71;100.00;99626.91;5005170;28;20208;-74
2022/09/15 10:02:21;;;;;;;1.40;1.30;;;;;;;16.70;100.00;99628.69;5025924;28;20711;-74
2022/09/15 10:04:49;;;;;;;2.87;1.37;;;;;;;16.51;100.00;99620.34;5023927;28;20199;-74
2022/09/15 10:07:18;;;;;;;1.30;1.20;;;;;;;16.48;100.00;99616.16;5008891;28;20222;-74
2022/09/15 10:09:51;;;;;;;1.83;1.23;;;;;;;16.43;100.00;99621.72;5002481;28;20216;-74
2022/09/15 10:12:22;;;;;;;1.60;1.30;;;;;;;16.50;100.00;99616.88;5007336;28;20603;-74
2022/09/15 10:14:51;;;;;;;1.67;1.47;;;;;;;16.46;100.00;99613.63;5025067;28;20200;-74
2022/09/15 10:17:20;;;;;;;1.07;1.00;;;;;;;16.51;100.00;99618.56;5024628;28;20222;-74
2022/09/15 10:19:51;;;;;;;1.70;1.20;;;;;;;16.52;100.00;99616.78;5024445;28;20200;-74
2022/09/15 10:22:24;;;;;;;2.43;1.30;;;;;;;16.53;100.00;99621.94;5024471;28;20297;-74
2022/09/15 10:24:53;;;;;;;1.17;1.00;;;;;;;16.84;100.00;99625.16;5025096;28;20239;-74
2022/09/15 10:27:26;;;;;;;1.43;1.00;;;;;;;17.06;100.00;99619.25;5024423;28;20215;-74
2022/09/15 10:29:52;;;;;;;1.57;1.00;;;;;;;17.21;100.00;99612.09;5025465;28;20230;-74
2022/09/15 10:32:24;;;;;;;1.40;0.90;;;;;;;17.34;100.00;99617.34;5007796;28;20231;-74
2022/09/15 10:34:59;;;;;;;1.80;1.10;;;;;;;17.55;100.00;99609.72;5024272;28;20210;-74
2022/09/15 10:37:30;;;;;;;1.07;1.00;;;;;;;17.68;100.00;99605.25;5024044;28;20729;-74
2022/09/15 10:39:59;;;;;;;1.43;1.00;;;;;;;17.59;100.00;99609.41;5003325;28;20561;-74
2022/09/15 10:42:43;;;;;;;1.10;0.90;;;;;;;17.41;100.00;99616.81;5024185;28;20243;-74
2022/09/15 10:45:24;;;;;;;2.03;1.00;;;;;;;17.16;100.00;99615.03;5025605;28;20553;-74
2022/09/15 10:48:05;;;;;;;1.67;1.27;;;;;;;17.10;100.00;99610.22;5021017;28;20202;-74
2022/09/15 10:50:41;;;;;;;1.10;0.97;;;;;;;17.08;100.00;99611.25;5008878;28;20212;-74
2022/09/15 10:53:15;;;;;;;3.80;1.10;;;;;;;17.08;100.00;99611.25;5024083;28;20207;-74
2022/09/15 10:55:54;;;;;;;1.43;0.70;;;;;;;17.22;100.00;99608.53;5000438;28;20203;-74
2022/09/15 10:58:35;;;;;;;1.13;0.97;;;;;;;17.28;100.00;99616.00;4998834;28;20610;-74
2022/09/15 11:01:16;;;;;;;1.13;0.77;;;;;;;17.26;100.00;99614.44;5007763;28;20227;-74
2022/09/15 11:04:02;;;;;;;1.20;0.90;;;;;;;17.32;100.00;99619.25;5006731;28;20295;-74
2022/09/15 11:06:33;;;;;;;1.10;0.87;;;;;;;17.38;100.00;99614.41;5023464;28;20220;-74
2022/09/15 11:09:14;;;;;;;1.40;1.00;;;;;;;17.38;100.00;99624.94;5023143;28;20278;-74
2022/09/15 11:11:59;;;;;;;1.40;0.80;;;;;;;17.48;100.00;99614.56;5005353;28;20223;-74
2022/09/15 11:14:38;;;;;;;1.10;1.00;;;;;;;17.54;100.00;99621.22;5002091;28;20208;-74
2022/09/15 11:17:16;;;;;;;1.87;1.00;;;;;;;17.31;100.00;99626.31;5021466;28;20214;-74
2022/09/15 11:19:59;;;;;;;1.97;0.90;;;;;;;17.18;100.00;99620.22;5019563;28;20210;-74
2022/09/15 11:22:31;;;;;;;1.73;1.00;;;;;;;17.05;100.00;99620.22;5003862;28;20216;-74
2022/09/15 11:25:01;;;;;;;0.90;0.90;;;;;;;16.89;100.00;99623.06;5008037;28;20673;-74
2022/09/15 11:27:35;;;;;;;1.00;0.90;;;;;;;16.77;100.00;99615.97;5005429;28;20223;-74
2022/09/15 11:30:05;;;;;;;1.00;0.90;;;;;;;16.69;100.00;99623.53;5022846;28;20215;-74
2022/09/15 11:32:39;;;;;;;3.03;0.97;;;;;;;16.64;100.00;99626.50;5023666;28;20310;-74
2022/09/15 11:35:31;;;;;;;0.87;0.83;;;;;;;16.61;100.00;99624.91;5024587;28;20203;-74
2022/09/15 11:38:05;;;;;;;1.60;1.00;;;;;;;16.50;100.00;99626.56;5019392;28;20571;-74